Time,TemperatureF,DewpointF,PressureIn,WindDirection,WindDirectionDegrees,WindSpeedMPH,WindSpeedGustMPH,Humidity,HourlyPrecipIn,Conditions,Clouds,dailyrainin,SoftwareType,DateUTC
2013-10-03 00:00:00,54.2,51.0,30.00,East,88,0.0,-999.0,88,-99.99,,,0.00,weatherlink.com 1.10,2013-10-03 04:00:00,
2013-10-03 00:16:00,54.1,50.0,30.00,East,88,0.0,-999.0,85,-99.99,,,0.00,weatherlink.com 1.10,2013-10-03 04:16:00,
2013-10-03 00:31:00,54.9,50.0,30.00,East,88,0.0,-999.0,83,-99.99,,,0.00,weatherlink.com 1.10,2013-10-03 04:31:00,
2013-10-03 00:46:00,55.2,50.0,30.00,East,88,0.0,-999.0,81,-99.99,,,0.00,weatherlink.com 1.10,2013-10-03 04:46:00,
2013-10-03 01:01:00,54.7,50.0,30.00,East,88,0.0,-999.0,83,-99.99,,,0.00,weatherlink.com 1.10,2013-10-03 05:01:00,
2013-10-03 01:16:00,54.3,50.0,30.00,East,88,0.0,-999.0,85,-99.99,,,0.00,weatherlink.com 1.10,2013-10-03 05:16:00,
2013-10-03 01:31:00,54.0,50.0,29.99,East,88,0.0,-999.0,85,-99.99,,,0.00,weatherlink.com 1.10,2013-10-03 05:31:00,
2013-10-03 01:46:00,53.9,50.0,29.99,East,96,1.0,-999.0,87,-99.99,,,0.00,weatherlink.com 1.10,2013-10-03 05:46:00,
2013-10-03 02:01:00,55.4,51.0,29.99,ESE,116,1.0,-999.0,84,-99.99,,,0.00,weatherlink.com 1.10,2013-10-03 06:01:00,
2013-10-03 02:16:00,56.0,51.0,29.99,ESE,117,2.0,-999.0,83,-99.99,,,0.00,weatherlink.com 1.10,2013-10-03 06:16:00,
2013-10-03 02:31:00,56.1,51.0,29.99,ESE,117,0.0,-999.0,82,-99.99,,,0.00,weatherlink.com 1.10,2013-10-03 06:31:00,
2013-10-03 02:46:00,55.3,51.0,29.99,ESE,117,0.0,-999.0,84,-99.99,,,0.00,weatherlink.com 1.10,2013-10-03 06:46:00,
2013-10-03 03:01:00,55.2,51.0,29.99,ESE,117,2.0,-999.0,86,-99.99,,,0.00,weatherlink.com 1.10,2013-10-03 07:01:00,
2013-10-03 03:16:00,56.0,51.0,29.98,ESE,117,0.0,-999.0,84,-99.99,,,0.00,weatherlink.com 1.10,2013-10-03 07:16:00,
2013-10-03 03:31:00,56.7,52.0,29.98,ESE,117,2.0,-999.0,83,-99.99,,,0.00,weatherlink.com 1.10,2013-10-03 07:31:00,
2013-10-03 03:46:00,56.8,51.0,29.97,SE,124,2.0,-999.0,82,-99.99,,,0.00,weatherlink.com 1.10,2013-10-03 07:46:00,
2013-10-03 04:01:00,57.2,52.0,29.97,ESE,119,2.0,-999.0,82,-99.99,,,0.00,weatherlink.com 1.10,2013-10-03 08:01:00,
2013-10-03 04:16:00,57.7,52.0,29.97,ESE,118,1.0,-999.0,82,-99.99,,,0.00,weatherlink.com 1.10,2013-10-03 08:16:00,
2013-10-03 04:31:00,57.7,52.0,29.97,ESE,118,1.0,-999.0,82,-99.99,,,0.00,weatherlink.com 1.10,2013-10-03 08:31:00,
2013-10-03 04:46:00,57.7,53.0,29.97,ESE,118,0.0,-999.0,84,-99.99,,,0.00,weatherlink.com 1.10,2013-10-03 08:46:00,
2013-10-03 05:01:00,58.1,54.0,29.98,SE,144,1.0,-999.0,85,-99.99,,,0.00,weatherlink.com 1.10,2013-10-03 09:01:00,
2013-10-03 05:16:00,58.6,54.0,29.98,SSE,155,1.0,-999.0,85,-99.99,,,0.00,weatherlink.com 1.10,2013-10-03 09:16:00,
2013-10-03 05:31:00,58.9,54.0,29.98,SE,143,0.0,-999.0,85,-99.99,,,0.00,weatherlink.com 1.10,2013-10-03 09:31:00,
2013-10-03 05:46:00,59.4,55.0,29.97,ESE,102,1.0,-999.0,85,-99.99,,,0.00,weatherlink.com 1.10,2013-10-03 09:46:00,
2013-10-03 06:01:00,59.7,56.0,29.97,ESE,111,4.0,-999.0,86,-99.99,,,0.00,weatherlink.com 1.10,2013-10-03 10:01:00,
2013-10-03 06:16:00,59.8,56.0,29.96,SE,135,1.0,-999.0,86,-99.99,,,0.00,weatherlink.com 1.10,2013-10-03 10:16:00,
2013-10-03 06:31:00,59.8,55.0,29.97,SE,146,1.0,-999.0,85,-99.99,,,0.00,weatherlink.com 1.10,2013-10-03 10:31:00,
2013-10-03 06:46:00,60.1,56.0,29.97,South,172,2.0,-999.0,85,-99.99,,,0.00,weatherlink.com 1.10,2013-10-03 10:46:00,
2013-10-03 07:01:00,60.5,56.0,29.97,SE,142,1.0,-999.0,84,-99.99,,,0.00,weatherlink.com 1.10,2013-10-03 11:01:00,
2013-10-03 07:16:00,60.6,56.0,29.98,South,177,1.0,-999.0,84,-99.99,,,0.00,weatherlink.com 1.10,2013-10-03 11:16:00,
2013-10-03 07:31:00,60.4,56.0,29.97,SE,146,1.0,-999.0,85,-99.99,,,0.00,weatherlink.com 1.10,2013-10-03 11:31:00,
2013-10-03 07:46:00,60.2,56.0,29.98,SSE,149,1.0,-999.0,87,-99.99,,,0.00,weatherlink.com 1.10,2013-10-03 11:46:00,
2013-10-03 08:01:00,60.2,57.0,29.98,ESE,121,1.0,-999.0,88,-99.99,,,0.00,weatherlink.com 1.10,2013-10-03 12:01:00,
2013-10-03 08:16:00,60.4,57.0,29.97,SE,136,0.0,-999.0,89,-99.99,,,0.00,weatherlink.com 1.10,2013-10-03 12:16:00,
2013-10-03 08:31:00,60.8,58.0,29.97,South,183,0.0,-999.0,89,-99.99,,,0.00,weatherlink.com 1.10,2013-10-03 12:31:00,
2013-10-03 08:46:00,61.1,58.0,29.96,South,169,5.0,-999.0,89,-99.99,,,0.00,weatherlink.com 1.10,2013-10-03 12:46:00,
2013-10-03 09:01:00,61.7,58.0,29.96,SSW,194,6.0,-999.0,88,-99.99,,,0.00,weatherlink.com 1.10,2013-10-03 13:01:00,
2013-10-03 09:16:00,62.5,59.0,29.97,South,173,2.0,-999.0,87,-99.99,,,0.00,weatherlink.com 1.10,2013-10-03 13:16:00,
2013-10-03 09:31:00,63.0,59.0,29.97,South,182,2.0,-999.0,86,-99.99,,,0.00,weatherlink.com 1.10,2013-10-03 13:31:00,
2013-10-03 09:46:00,64.1,59.0,29.98,South,180,6.0,-999.0,84,-99.99,,,0.00,weatherlink.com 1.10,2013-10-03 13:46:00,
2013-10-03 10:02:00,64.7,60.0,29.98,SSW,197,7.0,-999.0,84,-99.99,,,0.00,weatherlink.com 1.10,2013-10-03 14:02:00,
2013-10-03 10:17:00,65.0,60.0,29.97,SSW,192,8.0,-999.0,85,-99.99,,,0.00,weatherlink.com 1.10,2013-10-03 14:17:00,
2013-10-03 10:32:00,65.7,61.0,29.96,SSW,211,5.0,-999.0,85,-99.99,,,0.00,weatherlink.com 1.10,2013-10-03 14:32:00,
2013-10-03 10:47:00,66.9,62.0,29.96,South,189,2.0,-999.0,85,-99.99,,,0.00,weatherlink.com 1.10,2013-10-03 14:47:00,
2013-10-03 11:02:00,67.9,63.0,29.96,South,190,1.0,-999.0,84,-99.99,,,0.00,weatherlink.com 1.10,2013-10-03 15:02:00,
2013-10-03 11:17:00,68.6,63.0,29.95,SSW,198,7.0,-999.0,83,-99.99,,,0.00,weatherlink.com 1.10,2013-10-03 15:17:00,
2013-10-03 11:32:00,68.5,64.0,29.95,SSW,194,4.0,-999.0,84,-99.99,,,0.00,weatherlink.com 1.10,2013-10-03 15:32:00,
2013-10-03 11:47:00,69.8,65.0,29.94,SSW,213,3.0,-999.0,84,-99.99,,,0.00,weatherlink.com 1.10,2013-10-03 15:47:00,
2013-10-03 12:02:00,71.5,66.0,29.94,South,188,8.0,-999.0,82,-99.99,,,0.00,weatherlink.com 1.10,2013-10-03 16:02:00,
2013-10-03 12:17:00,72.2,66.0,29.94,SSW,211,6.0,-999.0,80,-99.99,,,0.00,weatherlink.com 1.10,2013-10-03 16:17:00,
2013-10-03 12:32:00,72.5,66.0,29.93,SW,231,7.0,-999.0,81,-99.99,,,0.00,weatherlink.com 1.10,2013-10-03 16:32:00,
2013-10-03 12:47:00,73.7,67.0,29.93,SW,227,5.0,-999.0,80,-99.99,,,0.00,weatherlink.com 1.10,2013-10-03 16:47:00,
2013-10-03 13:17:00,73.4,67.0,29.92,SW,219,7.0,-999.0,81,-99.99,,,0.00,weatherlink.com 1.10,2013-10-03 17:17:00,
2013-10-03 13:32:00,73.9,67.0,29.91,West,261,6.0,-999.0,80,-99.99,,,0.00,weatherlink.com 1.10,2013-10-03 17:32:00,
2013-10-03 13:47:00,74.0,67.0,29.91,SW,219,7.0,-999.0,79,-99.99,,,0.00,weatherlink.com 1.10,2013-10-03 17:47:00,
2013-10-03 14:02:00,74.6,68.0,29.91,SW,236,6.0,-999.0,79,-99.99,,,0.00,weatherlink.com 1.10,2013-10-03 18:02:00,
2013-10-03 14:17:00,75.5,68.0,29.90,NNW,331,1.0,-999.0,77,-99.99,,,0.00,weatherlink.com 1.10,2013-10-03 18:17:00,
2013-10-03 14:32:00,75.7,68.0,29.89,South,188,6.0,-999.0,76,-99.99,,,0.00,weatherlink.com 1.10,2013-10-03 18:32:00,
2013-10-03 14:47:00,75.9,68.0,29.89,WNW,302,4.0,-999.0,76,-99.99,,,0.00,weatherlink.com 1.10,2013-10-03 18:47:00,
2013-10-03 15:02:00,76.5,68.0,29.89,WSW,242,8.0,-999.0,75,-99.99,,,0.00,weatherlink.com 1.10,2013-10-03 19:02:00,
2013-10-03 15:17:00,76.0,68.0,29.89,WNW,299,7.0,-999.0,75,-99.99,,,0.00,weatherlink.com 1.10,2013-10-03 19:17:00,
2013-10-03 15:32:00,75.8,68.0,29.89,West,276,7.0,-999.0,76,-99.99,,,0.00,weatherlink.com 1.10,2013-10-03 19:32:00,
2013-10-03 15:47:00,75.6,68.0,29.88,WSW,241,3.0,-999.0,77,-99.99,,,0.00,weatherlink.com 1.10,2013-10-03 19:47:00,
2013-10-03 16:02:00,75.0,67.0,29.88,SSE,163,4.0,-999.0,77,-99.99,,,0.00,weatherlink.com 1.10,2013-10-03 20:02:00,
2013-10-03 16:17:00,74.9,67.0,29.87,West,273,7.0,-999.0,77,-99.99,,,0.00,weatherlink.com 1.10,2013-10-03 20:17:00,
2013-10-03 16:32:00,75.2,67.0,29.87,West,266,5.0,-999.0,76,-99.99,,,0.00,weatherlink.com 1.10,2013-10-03 20:32:00,
2013-10-03 16:47:00,74.8,67.0,29.86,WSW,246,4.0,-999.0,77,-99.99,,,0.00,weatherlink.com 1.10,2013-10-03 20:47:00,
2013-10-03 17:02:00,74.3,67.0,29.86,WSW,238,3.0,-999.0,79,-99.99,,,0.00,weatherlink.com 1.10,2013-10-03 21:02:00,
2013-10-03 17:17:00,74.0,67.0,29.86,West,261,7.0,-999.0,79,-99.99,,,0.00,weatherlink.com 1.10,2013-10-03 21:17:00,
2013-10-03 17:32:00,74.4,67.0,29.86,NW,317,5.0,-999.0,78,-99.99,,,0.00,weatherlink.com 1.10,2013-10-03 21:32:00,
2013-10-03 17:47:00,74.4,67.0,29.87,WNW,283,3.0,-999.0,77,-99.99,,,0.00,weatherlink.com 1.10,2013-10-03 21:47:00,
2013-10-03 18:02:00,73.8,67.0,29.88,NNW,338,4.0,-999.0,78,-99.99,,,0.00,weatherlink.com 1.10,2013-10-03 22:02:00,
2013-10-03 18:17:00,73.5,67.0,29.88,WSW,248,0.0,-999.0,80,-99.99,,,0.00,weatherlink.com 1.10,2013-10-03 22:17:00,
2013-10-03 18:33:00,73.3,67.0,29.88,WSW,256,3.0,-999.0,81,-99.99,,,0.00,weatherlink.com 1.10,2013-10-03 22:33:00,
2013-10-03 18:48:00,73.0,67.0,29.88,WSW,245,4.0,-999.0,81,-99.99,,,0.00,weatherlink.com 1.10,2013-10-03 22:48:00,
2013-10-03 19:03:00,72.8,67.0,29.89,WNW,298,3.0,-999.0,81,-99.99,,,0.00,weatherlink.com 1.10,2013-10-03 23:03:00,
2013-10-03 19:18:00,72.4,66.0,29.88,West,266,1.0,-999.0,81,-99.99,,,0.00,weatherlink.com 1.10,2013-10-03 23:18:00,
2013-10-03 19:33:00,71.9,66.0,29.88,West,279,1.0,-999.0,82,-99.99,,,0.00,weatherlink.com 1.10,2013-10-03 23:33:00,
2013-10-03 19:48:00,71.5,66.0,29.88,SW,217,0.0,-999.0,83,-99.99,,,0.00,weatherlink.com 1.10,2013-10-03 23:48:00,
2013-10-03 20:03:00,70.7,66.0,29.89,SW,217,0.0,-999.0,85,-99.99,,,0.00,weatherlink.com 1.10,2013-10-04 00:03:00,
2013-10-03 20:18:00,69.9,66.0,29.89,SW,217,0.0,-999.0,86,-99.99,,,0.00,weatherlink.com 1.10,2013-10-04 00:18:00,
2013-10-03 20:33:00,69.3,66.0,29.89,SW,217,0.0,-999.0,88,-99.99,,,0.00,weatherlink.com 1.10,2013-10-04 00:33:00,
2013-10-03 20:48:00,69.2,66.0,29.90,SW,217,0.0,-999.0,88,-99.99,,,0.00,weatherlink.com 1.10,2013-10-04 00:48:00,
2013-10-03 21:03:00,69.2,66.0,29.90,SW,217,0.0,-999.0,89,-99.99,,,0.00,weatherlink.com 1.10,2013-10-04 01:03:00,
2013-10-03 21:18:00,68.8,66.0,29.90,SW,217,0.0,-999.0,89,-99.99,,,0.00,weatherlink.com 1.10,2013-10-04 01:18:00,
2013-10-03 21:33:00,68.0,65.0,29.90,SW,217,0.0,-999.0,90,-99.99,,,0.00,weatherlink.com 1.10,2013-10-04 01:33:00,
2013-10-03 21:48:00,67.5,65.0,29.90,SW,217,0.0,-999.0,91,-99.99,,,0.00,weatherlink.com 1.10,2013-10-04 01:48:00,
2013-10-03 22:03:00,67.0,65.0,29.90,SW,217,0.0,-999.0,92,-99.99,,,0.00,weatherlink.com 1.10,2013-10-04 02:03:00,
2013-10-03 22:18:00,66.8,65.0,29.90,SW,217,0.0,-999.0,93,-99.99,,,0.00,weatherlink.com 1.10,2013-10-04 02:18:00,
2013-10-03 22:33:00,66.3,64.0,29.90,SW,217,0.0,-999.0,93,-99.99,,,0.00,weatherlink.com 1.10,2013-10-04 02:33:00,
2013-10-03 22:48:00,66.0,64.0,29.90,SW,217,0.0,-999.0,94,-99.99,,,0.00,weatherlink.com 1.10,2013-10-04 02:48:00,
2013-10-03 23:03:00,65.7,64.0,29.90,SW,217,0.0,-999.0,94,-99.99,,,0.00,weatherlink.com 1.10,2013-10-04 03:03:00,
2013-10-03 23:18:00,65.6,64.0,29.90,SW,217,0.0,-999.0,95,-99.99,,,0.00,weatherlink.com 1.10,2013-10-04 03:18:00,
2013-10-03 23:33:00,66.2,65.0,29.89,SSW,213,2.0,-999.0,95,-99.99,,,0.00,weatherlink.com 1.10,2013-10-04 03:33:00,
2013-10-03 23:48:00,66.4,65.0,29.89,SSW,204,2.0,-999.0,95,-99.99,,,0.00,weatherlink.com 1.10,2013-10-04 03:48:00,